Time;durP1;ratioP1;P1;durP2;ratioP2;P2;SDS_P1;SDS_P2;PMS_P1;PMS_P2;Temp;Humidity;BMP_temperature;BMP_pressure;BME280_temperature;BME280_humidity;BME280_pressure;Samples;Min_cycle;Max_cycle;Signal;HPM_P1;HPM_P2
2024/02/05 00:01:26;;;;;;;1.92;0.80;;;10.30;99.90;;;;;;5062285;28;20056;-71
2024/02/05 00:03:52;;;;;;;3.40;0.50;;;10.50;98.70;;;;;;5064491;28;20085;-71
2024/02/05 00:06:18;;;;;;;1.10;0.57;;;10.60;99.90;;;;;;5064516;28;20063;-71
2024/02/05 00:08:43;;;;;;;0.65;0.60;;;10.60;99.90;;;;;;5063062;28;20209;-71
2024/02/05 00:11:09;;;;;;;1.33;0.77;;;;;;;;;;5080559;28;20308;-71
2024/02/05 00:13:36;;;;;;;0.47;0.45;;;10.50;99.90;;;;;;5077358;28;20091;-71
2024/02/05 00:16:03;;;;;;;0.47;0.47;;;10.40;98.10;;;;;;5073611;28;20272;-71
2024/02/05 00:18:29;;;;;;;0.45;0.45;;;10.60;99.90;;;;;;5075445;28;20072;-70
2024/02/05 00:20:54;;;;;;;1.13;0.73;;;10.50;99.00;;;;;;5078949;28;20090;-71
2024/02/05 00:23:21;;;;;;;1.63;0.93;;;10.50;96.70;;;;;;5078379;28;20063;-70
2024/02/05 00:25:47;;;;;;;0.70;0.70;;;;;;;;;;5076977;28;20028;-71
2024/02/05 00:28:13;;;;;;;5.10;1.23;;;10.60;99.90;;;;;;5075987;28;20086;-70
2024/02/05 00:30:39;;;;;;;1.15;1.00;;;10.50;99.90;;;;;;5080018;28;20100;-71
2024/02/05 00:33:08;;;;;;;1.73;0.93;;;;;;;;;;5077648;28;20049;-71
2024/02/05 00:35:33;;;;;;;;;;;10.50;97.90;;;;;;5078373;28;20052;-71
2024/02/05 00:37:59;;;;;;;4.97;1.35;;;10.40;99.90;;;;;;5075024;28;19920;-71
2024/02/05 00:40:25;;;;;;;1.08;0.40;;;10.70;99.90;;;;;;5081175;28;20202;-71
2024/02/05 00:42:50;;;;;;;0.68;0.57;;;10.50;99.90;;;;;;5080809;28;20323;-71
2024/02/05 00:45:16;;;;;;;2.28;1.00;;;10.30;99.90;;;;;;5080110;28;20084;-71
2024/02/05 00:47:43;;;;;;;3.05;0.52;;;10.20;99.90;;;;;;5072831;28;20025;-71
2024/02/05 00:50:09;;;;;;;0.38;0.38;;;10.20;99.90;;;;;;5073192;28;20043;-71
2024/02/05 00:52:35;;;;;;;0.95;0.77;;;9.90;99.90;;;;;;5074139;28;20224;-72
2024/02/05 00:55:01;;;;;;;0.40;0.40;;;10.00;99.90;;;;;;5076069;28;20087;-70
2024/02/05 00:57:27;;;;;;;0.50;0.50;;;9.90;99.90;;;;;;5081501;28;20065;-70
2024/02/05 00:59:57;;;;;;;2.15;0.60;;;9.90;99.90;;;;;;5081522;28;20032;-69
2024/02/05 01:02:23;;;;;;;0.38;0.38;;;9.90;99.90;;;;;;5077381;28;20032;-70
2024/02/05 01:04:49;;;;;;;1.05;0.63;;;9.90;99.90;;;;;;5080767;28;20032;-69
2024/02/05 01:07:16;;;;;;;1.38;0.40;;;10.00;99.90;;;;;;5076676;28;20196;-70
2024/02/05 01:09:41;;;;;;;1.42;0.80;;;9.90;99.90;;;;;;5074208;28;20029;-70
2024/02/05 01:12:10;;;;;;;0.50;0.50;;;9.90;99.90;;;;;;5076827;28;20096;-70
2024/02/05 01:14:36;;;;;;;1.00;0.80;;;10.00;99.90;;;;;;5079234;28;20146;-70
2024/02/05 01:17:03;;;;;;;1.77;0.75;;;10.10;99.90;;;;;;5083231;28;20262;-71
2024/02/05 01:19:28;;;;;;;1.10;0.73;;;9.90;99.90;;;;;;5083425;28;20070;-70
2024/02/05 01:21:54;;;;;;;1.40;0.52;;;;;;;;;;5083182;28;20020;-70
2024/02/05 01:24:20;;;;;;;0.85;0.57;;;9.90;99.90;;;;;;5083316;28;20025;-70
2024/02/05 01:26:46;;;;;;;1.27;0.50;;;;;;;;;;5083086;28;20311;-70
2024/02/05 01:29:12;;;;;;;0.40;0.30;;;9.90;99.90;;;;;;5082943;28;20032;-70
2024/02/05 01:31:42;;;;;;;0.63;0.63;;;9.90;99.90;;;;;;5081324;28;20025;-70
2024/02/05 01:34:08;;;;;;;1.05;0.80;;;;;;;;;;5082916;28;20055;-70
2024/02/05 01:36:33;;;;;;;0.60;0.60;;;9.70;99.90;;;;;;5079879;28;20080;-70
2024/02/05 01:38:59;;;;;;;0.70;0.70;;;;;;;;;;5102655;28;20228;-70
2024/02/05 01:41:25;;;;;;;0.55;0.45;;;;;;;;;;5103018;28;20028;-70
2024/02/05 01:43:51;;;;;;;0.43;0.30;;;;;;;;;;5103098;28;20031;-70
2024/02/05 01:46:21;;;;;;;0.50;0.50;;;10.10;99.90;;;;;;5103125;28;20011;-70
2024/02/05 01:48:52;;;;;;;1.00;0.55;;;10.00;99.90;;;;;;5102916;28;20028;-70
2024/02/05 01:51:22;;;;;;;0.70;0.30;;;10.10;99.90;;;;;;5103093;28;20030;-73
2024/02/05 01:53:52;;;;;;;2.85;0.73;;;10.10;99.90;;;;;;5102660;28;20107;-73
2024/02/05 01:56:23;;;;;;;0.80;0.35;;;10.10;99.90;;;;;;5092840;28;20027;-73
2024/02/05 01:58:49;;;;;;;0.40;0.40;;;;;;;;;;5102651;28;20028;-73
2024/02/05 02:01:15;;;;;;;0.38;0.30;;;10.20;99.90;;;;;;5102602;28;20020;-72
2024/02/05 02:03:41;;;;;;;3.22;0.88;;;10.30;99.90;;;;;;5102491;28;20020;-72
2024/02/05 02:06:11;;;;;;;1.83;0.40;;;10.30;99.90;;;;;;5102587;28;20030;-72
2024/02/05 02:08:38;;;;;;;0.50;0.43;;;10.30;99.90;;;;;;5102454;28;20032;-73
2024/02/05 02:11:04;;;;;;;0.88;0.50;;;10.40;99.90;;;;;;5094086;28;20058;-72
2024/02/05 02:13:32;;;;;;;0.40;0.40;;;10.40;99.90;;;;;;5101472;28;20347;-72
2024/02/05 02:16:02;;;;;;;0.70;0.40;;;10.50;99.90;;;;;;5102253;28;20019;-71
2024/02/05 02:18:32;;;;;;;0.68;0.43;;;10.50;99.90;;;;;;5102168;28;20024;-71
2024/02/05 02:21:01;;;;;;;1.45;0.30;;;10.50;99.90;;;;;;5102173;28;20339;-72
2024/02/05 02:23:31;;;;;;;0.40;0.40;;;10.70;99.90;;;;;;5102370;28;20020;-71
2024/02/05 02:25:58;;;;;;;0.40;0.40;;;10.60;99.90;;;;;;5101361;28;20038;-72
2024/02/05 02:28:23;;;;;;;0.52;0.50;;;10.60;99.90;;;;;;5094607;28;20062;-71
2024/02/05 02:30:52;;;;;;;1.20;0.60;;;11.00;99.90;;;;;;5099977;28;20043;-71
2024/02/05 02:33:21;;;;;;;1.85;0.50;;;10.80;99.90;;;;;;5101872;28;20055;-71
2024/02/05 02:36:02;;;;;;;0.40;0.40;;;10.80;99.90;;;;;;5102040;28;20024;-71
2024/02/05 02:38:46;;;;;;;1.40;0.70;;;10.50;98.70;;;;;;5101969;28;20020;-71
2024/02/05 02:41:21;;;;;;;0.70;0.43;;;10.80;99.90;;;;;;5101873;28;20011;-71
2024/02/05 02:43:56;;;;;;;4.55;0.77;;;10.80;99.90;;;;;;5101795;28;20239;-71
2024/02/05 02:46:23;;;;;;;0.65;0.43;;;10.90;99.90;;;;;;5092143;28;20020;-71
2024/02/05 02:48:49;;;;;;;0.82;0.60;;;10.80;99.90;;;;;;5101710;28;20062;-71
2024/02/05 02:51:15;;;;;;;0.93;0.50;;;;;;;;;;5101647;28;20107;-71
2024/02/05 02:53:42;;;;;;;0.68;0.63;;;10.70;99.90;;;;;;5101709;28;20027;-71
2024/02/05 02:56:09;;;;;;;0.70;0.40;;;10.70;99.90;;;;;;5101684;28;20020;-71
2024/02/05 02:58:35;;;;;;;0.43;0.30;;;10.70;99.90;;;;;;5101472;28;20200;-71
2024/02/05 03:01:00;;;;;;;0.40;0.40;;;10.80;99.90;;;;;;5098419;28;20095;-71
2024/02/05 03:03:26;;;;;;;0.88;0.45;;;;;;;;;;5095197;28;20059;-71
2024/02/05 03:05:52;;;;;;;0.28;0.28;;;10.70;99.90;;;;;;5101559;28;20024;-71
2024/02/05 03:08:18;;;;;;;0.70;0.47;;;10.70;99.90;;;;;;5101912;28;20352;-69
2024/02/05 03:10:44;;;;;;;0.40;0.35;;;10.70;99.90;;;;;;5101173;28;20040;-69
2024/02/05 03:13:10;;;;;;;1.38;0.30;;;10.90;99.90;;;;;;5101406;28;20023;-70
2024/02/05 03:15:36;;;;;;;0.77;0.45;;;;;;;;;;5101180;28;20073;-70
2024/02/05 03:18:02;;;;;;;0.32;0.30;;;10.80;99.90;;;;;;5101384;28;20028;-70
2024/02/05 03:20:41;;;;;;;0.40;0.40;;;10.70;99.90;;;;;;5091769;28;20312;-70
2024/02/05 03:23:11;;;;;;;0.52;0.40;;;10.60;99.90;;;;;;5100130;28;20051;-70
2024/02/05 03:25:40;;;;;;;0.20;0.20;;;10.70;99.90;;;;;;5101727;28;20095;-71
2024/02/05 03:28:09;;;;;;;0.50;0.50;;;10.70;99.90;;;;;;5101204;28;20273;-71
2024/02/05 03:30:35;;;;;;;1.17;0.52;;;10.80;99.90;;;;;;5101063;28;20032;-71
2024/02/05 03:33:02;;;;;;;0.77;0.40;;;10.70;99.70;;;;;;5101086;28;20371;-71
2024/02/05 03:35:29;;;;;;;0.75;0.35;;;10.60;99.90;;;;;;5101696;28;20015;-71
2024/02/05 03:37:56;;;;;;;1.30;0.35;;;10.90;99.90;;;;;;5108086;28;20016;-71
2024/02/05 03:40:22;;;;;;;0.65;0.40;;;10.70;99.90;;;;;;5108194;28;20091;-71
2024/02/05 03:42:52;;;;;;;0.30;0.30;;;10.80;99.90;;;;;;5107900;28;20031;-70
2024/02/05 03:45:18;;;;;;;1.23;0.50;;;;;;;;;;5107880;28;20024;-71
2024/02/05 03:47:45;;;;;;;1.48;0.50;;;10.90;99.90;;;;;;5107817;28;20054;-71
2024/02/05 03:50:11;;;;;;;0.40;0.38;;;10.80;99.90;;;;;;5107723;28;20096;-71
2024/02/05 03:52:45;;;;;;;0.20;0.20;;;10.80;99.90;;;;;;5102410;28;20235;-71
2024/02/05 03:55:12;;;;;;;0.40;0.40;;;10.70;99.90;;;;;;5105040;28;20055;-70
2024/02/05 03:57:55;;;;;;;0.40;0.40;;;10.70;99.90;;;;;;5107795;28;20232;-71
2024/02/05 04:00:21;;;;;;;0.50;0.50;;;10.70;99.90;;;;;;5107540;28;20035;-71
2024/02/05 04:02:47;;;;;;;0.40;0.30;;;;;;;;;;5107567;28;20028;-71
2024/02/05 04:05:12;;;;;;;0.22;0.22;;;10.60;99.90;;;;;;5107875;28;20043;-70
2024/02/05 04:07:38;;;;;;;1.25;0.52;;;10.70;99.90;;;;;;5107743;28;20259;-72
2024/02/05 04:10:05;;;;;;;0.63;0.60;;;10.70;98.90;;;;;;5106170;28;20054;-71
2024/02/05 04:12:31;;;;;;;0.43;0.35;;;10.80;99.90;;;;;;5107566;28;20023;-70
2024/02/05 04:14:56;;;;;;;0.68;0.63;;;10.80;99.90;;;;;;5107627;28;20196;-70
2024/02/05 04:17:23;;;;;;;0.50;0.50;;;10.80;98.90;;;;;;5097791;28;20091;-70
2024/02/05 04:19:50;;;;;;;0.90;0.70;;;10.80;99.90;;;;;;5107579;28;20031;-70
2024/02/05 04:22:16;;;;;;;1.52;0.68;;;10.80;99.90;;;;;;5106202;28;20236;-70
2024/02/05 04:24:42;;;;;;;0.52;0.50;;;11.10;99.90;;;;;;5107282;28;20066;-70
2024/02/05 04:27:08;;;;;;;0.65;0.38;;;10.90;99.90;;;;;;5107643;28;20024;-70
2024/02/05 04:29:34;;;;;;;1.58;0.70;;;;;;;;;;5093301;28;20308;-70
2024/02/05 04:32:03;;;;;;;1.48;0.25;;;11.10;99.90;;;;;;5087011;28;20075;-70
2024/02/05 04:34:29;;;;;;;1.48;0.47;;;11.10;99.90;;;;;;5087320;28;20086;-70
2024/02/05 04:36:55;;;;;;;1.15;0.50;;;11.00;99.90;;;;;;5087056;28;20024;-70
2024/02/05 04:39:21;;;;;;;1.67;0.60;;;11.00;99.90;;;;;;5087082;28;20024;-71
2024/02/05 04:41:48;;;;;;;0.57;0.47;;;11.10;99.90;;;;;;5086996;28;20026;-71
2024/02/05 04:44:14;;;;;;;0.82;0.57;;;10.90;99.90;;;;;;5086959;28;20423;-71
2024/02/05 04:46:40;;;;;;;5.68;1.13;;;11.00;98.40;;;;;;5086857;28;20251;-71
2024/02/05 04:49:06;;;;;;;2.10;0.77;;;11.10;99.90;;;;;;5082819;28;20103;-71
2024/02/05 04:51:31;;;;;;;1.67;0.50;;;11.20;99.90;;;;;;5083861;28;20052;-72
2024/02/05 04:53:57;;;;;;;1.13;0.52;;;;;;;;;;5083624;28;20024;-71
2024/02/05 04:56:24;;;;;;;0.50;0.47;;;;;;;;;;5083720;28;20048;-71
2024/02/05 04:58:51;;;;;;;0.52;0.47;;;;;;;;;;5083495;28;20329;-71
2024/02/05 05:01:17;;;;;;;2.10;0.32;;;11.00;99.90;;;;;;5083476;28;20032;-71
2024/02/05 05:03:42;;;;;;;0.45;0.45;;;11.00;99.90;;;;;;5083450;28;20017;-71
2024/02/05 05:06:08;;;;;;;1.05;0.55;;;;;;;;;;5083395;28;20028;-72
2024/02/05 05:08:34;;;;;;;0.85;0.40;;;11.00;99.90;;;;;;5083357;28;20388;-72
2024/02/05 05:11:00;;;;;;;0.77;0.70;;;;;;;;;;5083426;28;20055;-71
2024/02/05 05:13:26;;;;;;;0.22;0.22;;;10.90;99.90;;;;;;5083237;28;20275;-69
2024/02/05 05:15:52;;;;;;;0.80;0.70;;;;;;;;;;5083428;28;20055;-69
2024/02/05 05:18:18;;;;;;;0.65;0.38;;;11.20;99.90;;;;;;5083066;28;20066;-70
2024/02/05 05:20:44;;;;;;;0.70;0.50;;;;;;;;;;5083120;28;20028;-72
2024/02/05 05:23:09;;;;;;;1.20;0.82;;;11.00;99.90;;;;;;5083276;28;20088;-72
2024/02/05 05:25:36;;;;;;;0.47;0.38;;;9.80;93.50;;;;;;5083265;28;20220;-71
2024/02/05 05:28:06;;;;;;;0.32;0.32;;;11.10;99.90;;;;;;5083233;28;20016;-71
2024/02/05 05:30:32;;;;;;;0.55;0.47;;;;;;;;;;5083108;28;20327;-71
2024/02/05 05:32:58;;;;;;;0.47;0.47;;;11.20;99.90;;;;;;5082846;28;20108;-72
2024/02/05 05:35:26;;;;;;;1.67;0.40;;;11.00;99.90;;;;;;5082692;28;20223;-71
2024/02/05 05:37:52;;;;;;;2.45;0.30;;;11.10;94.00;;;;;;5082963;28;20035;-72
2024/02/05 05:40:18;;;;;;;0.77;0.60;;;11.20;99.90;;;;;;5082842;28;20087;-72
2024/02/05 05:42:44;;;;;;;0.95;0.38;;;11.20;99.90;;;;;;5082499;28;20021;-71
2024/02/05 05:45:10;;;;;;;0.35;0.32;;;;;;;;;;5082937;28;20209;-71
2024/02/05 05:47:36;;;;;;;1.27;0.40;;;11.20;99.90;;;;;;5082643;28;20016;-71
2024/02/05 05:50:02;;;;;;;1.02;0.40;;;;;;;;;;5081974;28;20048;-71
2024/02/05 05:52:30;;;;;;;0.45;0.30;;;;;;;;;;5081447;28;20090;-71
2024/02/05 05:54:55;;;;;;;0.25;0.25;;;11.20;99.10;;;;;;5081771;28;20078;-71
2024/02/05 05:57:21;;;;;;;1.23;0.43;;;;;;;;;;5081708;28;20028;-72
2024/02/05 05:59:47;;;;;;;0.40;0.40;;;11.30;98.80;;;;;;5081346;28;20016;-71
2024/02/05 06:02:13;;;;;;;0.88;0.50;;;11.40;98.70;;;;;;5073531;28;20370;-73
2024/02/05 06:04:39;;;;;;;0.63;0.50;;;11.30;98.20;;;;;;5081411;28;20096;-71
2024/02/05 06:07:06;;;;;;;6.53;0.45;;;;;;;;;;5088161;28;20239;-71
2024/02/05 06:09:33;;;;;;;0.50;0.50;;;11.30;98.10;;;;;;5102340;28;20162;-71
2024/02/05 06:11:58;;;;;;;1.75;0.30;;;11.30;93.50;;;;;;5102319;28;20050;-71
2024/02/05 06:14:24;;;;;;;0.28;0.25;;;11.30;97.80;;;;;;5102490;28;20024;-72
2024/02/05 06:16:50;;;;;;;0.22;0.22;;;11.50;97.70;;;;;;5102775;28;20028;-71
2024/02/05 06:19:16;;;;;;;2.63;0.63;;;;;;;;;;5102373;28;20058;-71
2024/02/05 06:21:41;;;;;;;0.30;0.30;;;11.30;91.60;;;;;;5099217;28;20066;-71
2024/02/05 06:24:07;;;;;;;0.20;0.20;;;11.40;91.30;;;;;;5095800;28;20258;-71
2024/02/05 06:26:32;;;;;;;0.35;0.35;;;11.10;96.90;;;;;;5094885;28;20367;-72
2024/02/05 06:28:58;;;;;;;1.60;0.40;;;11.40;96.80;;;;;;5081840;28;20222;-72
2024/02/05 06:31:24;;;;;;;0.98;0.60;;;11.40;96.80;;;;;;5081755;28;20211;-71
2024/02/05 06:33:50;;;;;;;0.43;0.38;;;;;;;;;;5081460;28;20067;-73
2024/02/05 06:36:16;;;;;;;0.50;0.50;;;;;;;;;;5081651;28;20024;-71
2024/02/05 06:38:42;;;;;;;0.52;0.40;;;11.50;96.20;;;;;;5081527;28;20313;-72
2024/02/05 06:41:07;;;;;;;0.30;0.30;;;11.20;95.60;;;;;;5081472;28;20036;-72
2024/02/05 06:43:34;;;;;;;0.30;0.30;;;11.50;91.00;;;;;;5081229;28;20029;-71
2024/02/05 06:46:00;;;;;;;0.65;0.30;;;11.60;95.40;;;;;;5081350;28;20079;-72
2024/02/05 06:48:26;;;;;;;0.55;0.38;;;11.50;82.70;;;;;;5080953;28;20343;-72
2024/02/05 06:50:52;;;;;;;0.47;0.30;;;11.60;92.60;;;;;;5081527;28;20029;-71
2024/02/05 06:53:18;;;;;;;2.03;0.30;;;;;;;;;;5075581;28;20324;-71
2024/02/05 06:55:43;;;;;;;0.95;0.38;;;11.60;94.60;;;;;;5061388;28;20353;-71
2024/02/05 06:58:12;;;;;;;1.05;0.50;;;;;;;;;;5079050;28;20024;-71
2024/02/05 07:00:39;;;;;;;0.38;0.22;;;11.60;80.50;;;;;;5080314;28;20328;-71
2024/02/05 07:03:05;;;;;;;0.80;0.40;;;11.60;80.40;;;;;;5080288;28;20135;-71
2024/02/05 07:05:30;;;;;;;0.40;0.40;;;11.50;94.00;;;;;;5080158;28;20241;-71
2024/02/05 07:07:57;;;;;;;0.82;0.50;;;;;;;;;;5079952;28;20020;-71
2024/02/05 07:10:23;;;;;;;0.45;0.32;;;;;;;;;;5079576;28;20332;-71
2024/02/05 07:12:49;;;;;;;0.50;0.30;;;;;;;;;;5079647;28;20028;-71
2024/02/05 07:15:14;;;;;;;0.40;0.40;;;11.50;93.50;;;;;;5080217;28;20040;-71
2024/02/05 07:17:43;;;;;;;0.38;0.38;;;11.70;93.80;;;;;;5080296;28;20051;-72
2024/02/05 07:20:09;;;;;;;0.20;0.20;;;11.70;89.40;;;;;;5080178;28;20031;-71
2024/02/05 07:22:35;;;;;;;0.28;0.28;;;;;;;;;;5080427;28;20021;-71
2024/02/05 07:25:02;;;;;;;0.73;0.40;;;11.70;93.40;;;;;;5081072;28;20051;-71
2024/02/05 07:27:27;;;;;;;0.20;0.20;;;11.80;92.70;;;;;;5080828;28;20021;-71
2024/02/05 07:29:53;;;;;;;0.63;0.30;;;11.80;93.30;;;;;;5079651;28;20143;-71
2024/02/05 07:32:20;;;;;;;0.55;0.38;;;11.80;93.00;;;;;;5080625;28;20052;-71
2024/02/05 07:34:46;;;;;;;0.20;0.20;;;11.90;93.20;;;;;;5080827;28;20040;-71
2024/02/05 07:37:12;;;;;;;0.40;0.40;;;;;;;;;;5079506;28;20355;-71
2024/02/05 07:39:39;;;;;;;0.40;0.38;;;11.80;82.70;;;;;;5081009;28;20079;-71
2024/02/05 07:42:06;;;;;;;0.28;0.25;;;;;;;;;;5080955;28;20024;-71
2024/02/05 07:44:32;;;;;;;0.40;0.20;;;;;;;;;;5081031;28;20048;-72
2024/02/05 07:46:58;;;;;;;0.20;0.20;;;11.90;93.00;;;;;;5080945;28;20062;-71
2024/02/05 07:49:25;;;;;;;0.65;0.60;;;12.00;93.00;;;;;;5080621;28;20033;-71
2024/02/05 07:51:52;;;;;;;0.43;0.30;;;12.10;85.70;;;;;;5080684;28;20028;-71
2024/02/05 07:54:19;;;;;;;0.25;0.20;;;12.00;81.30;;;;;;5080620;28;20039;-71
2024/02/05 07:56:45;;;;;;;1.05;0.47;;;;;;;;;;5080682;28;20029;-71
2024/02/05 07:59:11;;;;;;;0.32;0.28;;;11.90;92.50;;;;;;5080561;28;20058;-71
2024/02/05 08:01:38;;;;;;;1.42;0.38;;;12.00;92.60;;;;;;5080695;28;20017;-71
2024/02/05 08:04:05;;;;;;;0.75;0.43;;;12.10;92.30;;;;;;5080546;28;20032;-71
2024/02/05 08:06:32;;;;;;;1.52;1.00;;;12.20;92.20;;;;;;5080629;28;20043;-71
2024/02/05 08:09:01;;;;;;;0.17;0.17;;;12.10;92.30;;;;;;5080488;28;20048;-71
2024/02/05 08:11:27;;;;;;;0.80;0.40;;;12.20;92.40;;;;;;5080537;28;20035;-72
2024/02/05 08:13:53;;;;;;;0.65;0.52;;;12.60;92.00;;;;;;5080387;28;20254;-72
2024/02/05 08:16:19;;;;;;;0.17;0.17;;;12.40;92.00;;;;;;5080700;28;20016;-71
2024/02/05 08:18:46;;;;;;;0.20;0.10;;;12.30;75.20;;;;;;5080464;28;20036;-72
2024/02/05 08:21:12;;;;;;;0.50;0.47;;;12.20;91.80;;;;;;5080292;28;20024;-71
2024/02/05 08:23:38;;;;;;;1.05;0.40;;;12.10;91.70;;;;;;5083724;28;20019;-72
2024/02/05 08:26:05;;;;;;;0.60;0.30;;;12.20;84.10;;;;;;5104378;28;20073;-71
2024/02/05 08:28:30;;;;;;;0.65;0.40;;;12.00;92.10;;;;;;5104695;28;20207;-72
2024/02/05 08:30:56;;;;;;;0.50;0.40;;;12.00;92.20;;;;;;5104608;28;20042;-72
2024/02/05 08:33:23;;;;;;;0.55;0.40;;;12.10;91.90;;;;;;5104091;28;20113;-71
2024/02/05 08:35:50;;;;;;;0.45;0.35;;;12.00;82.30;;;;;;5104522;28;20095;-71
2024/02/05 08:38:15;;;;;;;0.65;0.40;;;12.10;91.60;;;;;;5104126;28;20026;-72
2024/02/05 08:40:44;;;;;;;0.70;0.47;;;12.20;91.60;;;;;;5104210;28;20361;-72
2024/02/05 08:43:10;;;;;;;0.73;0.30;;;;;;;;;;5102833;28;20024;-71
2024/02/05 08:45:36;;;;;;;1.95;0.30;;;12.10;91.30;;;;;;5104341;28;20054;-71
2024/02/05 08:48:02;;;;;;;0.20;0.20;;;12.20;91.10;;;;;;5104113;28;20014;-71
2024/02/05 08:50:33;;;;;;;0.22;0.20;;;12.20;90.80;;;;;;5103736;28;20048;-71
2024/02/05 08:52:59;;;;;;;0.55;0.30;;;12.20;72.50;;;;;;5104062;28;20039;-71
2024/02/05 08:55:25;;;;;;;0.38;0.28;;;12.20;90.80;;;;;;5103939;28;20047;-70
2024/02/05 08:57:51;;;;;;;0.45;0.38;;;12.10;90.70;;;;;;5103945;28;20035;-70
2024/02/05 09:00:19;;;;;;;0.77;0.75;;;12.10;90.80;;;;;;5103906;28;20019;-71
2024/02/05 09:02:45;;;;;;;0.52;0.35;;;12.10;90.60;;;;;;5103883;28;20066;-71
2024/02/05 09:05:11;;;;;;;1.15;0.30;;;12.20;90.30;;;;;;5103896;28;20019;-71
2024/02/05 09:07:38;;;;;;;0.77;0.50;;;12.20;90.20;;;;;;5103715;28;20019;-71
2024/02/05 09:10:03;;;;;;;0.20;0.20;;;12.20;89.70;;;;;;5103660;28;20074;-71
2024/02/05 09:12:29;;;;;;;0.32;0.30;;;12.10;89.90;;;;;;5103513;28;20024;-70
2024/02/05 09:14:55;;;;;;;0.40;0.40;;;12.40;76.20;;;;;;5103627;28;20384;-71
2024/02/05 09:17:21;;;;;;;0.25;0.25;;;12.30;89.10;;;;;;5103460;28;20542;-71
2024/02/05 09:19:47;;;;;;;0.28;0.20;;;;;;;;;;5103478;28;20024;-70
2024/02/05 09:22:13;;;;;;;7.63;1.13;;;12.20;73.30;;;;;;5103289;28;20320;-70
2024/02/05 09:24:40;;;;;;;0.65;0.32;;;12.40;89.70;;;;;;5103399;28;20020;-70
2024/02/05 09:27:06;;;;;;;1.38;0.30;;;12.40;88.70;;;;;;5103250;28;20016;-71
2024/02/05 09:29:33;;;;;;;2.88;1.05;;;12.20;89.70;;;;;;5103493;28;20107;-70
2024/02/05 09:31:58;;;;;;;2.83;0.80;;;12.10;89.40;;;;;;5090537;28;20029;-71
2024/02/05 09:34:24;;;;;;;0.10;0.10;;;12.30;89.40;;;;;;5071228;28;20068;-71
2024/02/05 09:36:51;;;;;;;0.55;0.28;;;12.50;90.00;;;;;;5070656;28;20087;-70
2024/02/05 09:39:17;;;;;;;0.32;0.32;;;12.30;89.10;;;;;;5073799;28;20028;-71
2024/02/05 09:41:44;;;;;;;1.65;0.30;;;12.50;89.30;;;;;;5082999;28;20025;-70
2024/02/05 09:44:11;;;;;;;1.40;0.20;;;12.30;88.70;;;;;;5082921;28;20021;-70
2024/02/05 09:46:38;;;;;;;0.32;0.32;;;12.50;88.30;;;;;;5082771;28;20029;-70
2024/02/05 09:49:05;;;;;;;0.40;0.10;;;12.40;87.90;;;;;;5082505;28;20071;-71
2024/02/05 09:51:36;;;;;;;0.82;0.30;;;12.60;72.70;;;;;;5082802;28;20095;-70
2024/02/05 09:54:03;;;;;;;0.85;0.20;;;12.70;86.80;;;;;;5082607;28;20020;-70
2024/02/05 09:56:30;;;;;;;0.43;0.20;;;12.70;86.80;;;;;;5080395;28;20025;-70
2024/02/05 09:58:56;;;;;;;0.40;0.40;;;12.70;67.20;;;;;;5064171;28;20033;-70
2024/02/05 10:01:26;;;;;;;2.80;0.30;;;12.70;85.60;;;;;;5067113;28;20028;-70
2024/02/05 10:03:53;;;;;;;0.10;0.10;;;12.80;67.30;;;;;;5072736;28;20072;-71
2024/02/05 10:06:23;;;;;;;1.00;0.25;;;12.80;67.00;;;;;;5076193;28;20096;-70
2024/02/05 10:09:01;;;;;;;0.20;0.20;;;12.90;78.50;;;;;;5080936;28;20017;-70
2024/02/05 10:11:29;;;;;;;0.85;0.28;;;12.90;85.10;;;;;;5080788;28;20421;-70
2024/02/05 10:13:55;;;;;;;0.28;0.28;;;13.00;75.20;;;;;;5080577;28;20048;-69
2024/02/05 10:16:22;;;;;;;1.40;0.55;;;12.50;65.60;;;;;;5080611;28;20035;-70
2024/02/05 10:18:48;;;;;;;1.00;0.50;;;12.80;69.30;;;;;;5080333;28;20090;-71
2024/02/05 10:21:14;;;;;;;3.05;0.60;;;12.90;85.00;;;;;;5080439;28;20017;-70
2024/02/05 10:23:40;;;;;;;0.30;0.30;;;12.80;74.90;;;;;;5080598;28;20052;-71
2024/02/05 10:26:07;;;;;;;1.15;0.57;;;12.90;84.60;;;;;;5081829;28;20027;-70
2024/02/05 10:28:33;;;;;;;3.08;0.30;;;13.00;84.40;;;;;;5081814;28;20032;-70
2024/02/05 10:31:10;;;;;;;0.30;0.30;;;13.10;84.20;;;;;;5081453;28;20099;-70
2024/02/05 10:33:37;;;;;;;0.95;0.30;;;12.90;65.30;;;;;;5081643;28;20056;-70
2024/02/05 10:36:03;;;;;;;0.43;0.30;;;13.10;84.10;;;;;;5081944;28;20032;-70
2024/02/05 10:38:34;;;;;;;1.83;0.30;;;12.80;83.70;;;;;;5081693;28;20305;-70
2024/02/05 10:40:59;;;;;;;0.40;0.40;;;12.80;83.10;;;;;;5081546;28;20358;-70
2024/02/05 10:43:27;;;;;;;2.15;0.43;;;13.10;64.60;;;;;;5081673;28;20044;-71
2024/02/05 10:45:57;;;;;;;0.75;0.43;;;13.30;71.70;;;;;;5080936;28;20024;-70
2024/02/05 10:48:23;;;;;;;1.45;0.98;;;13.10;83.20;;;;;;5081510;28;20024;-70
2024/02/05 10:50:50;;;;;;;1.58;0.40;;;13.40;83.20;;;;;;5080114;28;20048;-70
2024/02/05 10:53:16;;;;;;;0.20;0.20;;;13.00;83.40;;;;;;5081548;28;20028;-70
2024/02/05 10:55:44;;;;;;;0.10;0.10;;;13.10;82.90;;;;;;5081572;28;20382;-70
2024/02/05 10:58:13;;;;;;;0.40;0.30;;;13.20;82.80;;;;;;5081188;28;20279;-70
2024/02/05 11:00:40;;;;;;;0.38;0.30;;;13.10;83.10;;;;;;5081159;28;20332;-70
2024/02/05 11:03:14;;;;;;;0.50;0.30;;;13.10;83.10;;;;;;5081258;28;20027;-70
2024/02/05 11:05:43;;;;;;;0.30;0.22;;;13.20;83.10;;;;;;5081524;28;20032;-71
2024/02/05 11:08:17;;;;;;;0.40;0.20;;;12.90;82.70;;;;;;5081390;28;20123;-71
2024/02/05 11:10:44;;;;;;;0.20;0.20;;;12.90;64.40;;;;;;5081330;28;20082;-70
2024/02/05 11:13:34;;;;;;;0.47;0.30;;;13.10;82.80;;;;;;5081364;28;20074;-70
2024/02/05 11:16:01;;;;;;;1.65;0.20;;;12.80;82.70;;;;;;5081302;28;20024;-71
2024/02/05 11:18:47;;;;;;;0.75;0.30;;;12.90;64.50;;;;;;5080966;28;20031;-70
2024/02/05 11:21:19;;;;;;;0.52;0.30;;;12.90;64.60;;;;;;5081058;28;20032;-70
2024/02/05 11:23:47;;;;;;;0.20;0.20;;;13.30;83.10;;;;;;5081210;28;20036;-70
2024/02/05 11:26:13;;;;;;;2.75;0.50;;;13.20;82.10;;;;;;5080819;28;20112;-70
2024/02/05 11:28:39;;;;;;;2.05;0.30;;;13.30;81.40;;;;;;5081234;28;20082;-70
2024/02/05 11:31:09;;;;;;;0.10;0.10;;;13.60;80.90;;;;;;5080879;28;20040;-71
2024/02/05 11:33:38;;;;;;;0.77;0.20;;;13.70;80.50;;;;;;5080850;28;20116;-70
2024/02/05 11:36:10;;;;;;;0.65;0.30;;;13.80;80.00;;;;;;5081179;28;20036;-70
2024/02/05 11:38:39;;;;;;;0.60;0.10;;;13.90;79.50;;;;;;5080972;28;20076;-71
2024/02/05 11:41:06;;;;;;;0.10;0.10;;;14.10;79.20;;;;;;5080972;28;20048;-71
2024/02/05 11:43:32;;;;;;;1.85;0.20;;;14.30;63.60;;;;;;5080928;28;20028;-70
2024/02/05 11:45:58;;;;;;;0.95;0.30;;;13.80;78.90;;;;;;5081028;28;20096;-70
2024/02/05 11:48:24;;;;;;;0.65;0.20;;;13.90;79.50;;;;;;5081122;28;20056;-70
2024/02/05 11:50:50;;;;;;;0.40;0.20;;;14.00;79.40;;;;;;5081058;28;20091;-70
2024/02/05 11:53:17;;;;;;;0.10;0.10;;;14.00;61.40;;;;;;5080896;28;20023;-71
2024/02/05 11:55:43;;;;;;;0.10;0.10;;;14.50;79.10;;;;;;5080716;28;20024;-70
2024/02/05 11:58:10;;;;;;;0.77;0.30;;;14.40;78.10;;;;;;5083975;28;20055;-70
2024/02/05 12:00:36;;;;;;;0.82;0.13;;;14.30;77.50;;;;;;5084950;28;20028;-70
2024/02/05 12:03:04;;;;;;;0.25;0.20;;;14.30;77.30;;;;;;5085077;28;20067;-70
2024/02/05 12:05:30;;;;;;;0.20;0.20;;;14.40;77.00;;;;;;5084801;28;20091;-70
2024/02/05 12:07:56;;;;;;;0.30;0.30;;;14.20;77.20;;;;;;5084850;28;20078;-70
2024/02/05 12:10:23;;;;;;;0.22;0.22;;;14.20;77.20;;;;;;5084557;28;20332;-71
2024/02/05 12:12:49;;;;;;;0.30;0.30;;;;;;;;;;5084544;28;20437;-70
2024/02/05 12:15:19;;;;;;;0.80;0.20;;;14.20;66.80;;;;;;5084508;28;20098;-70
2024/02/05 12:17:46;;;;;;;0.28;0.22;;;14.40;76.80;;;;;;5084444;28;20032;-70
2024/02/05 12:20:19;;;;;;;0.68;0.50;;;14.80;77.00;;;;;;5084414;28;20036;-70
2024/02/05 12:22:47;;;;;;;0.55;0.30;;;14.60;75.70;;;;;;5084246;28;20020;-70
2024/02/05 12:25:15;;;;;;;0.15;0.15;;;14.80;76.00;;;;;;5084570;28;20153;-71
2024/02/05 12:27:41;;;;;;;0.30;0.30;;;14.60;75.40;;;;;;5084515;28;20025;-71
2024/02/05 12:30:08;;;;;;;0.85;0.38;;;14.70;75.70;;;;;;5084280;28;20031;-70
2024/02/05 12:32:34;;;;;;;0.20;0.10;;;14.60;75.90;;;;;;5084088;28;20159;-70
2024/02/05 12:35:00;;;;;;;0.55;0.20;;;14.50;76.20;;;;;;5084278;28;20035;-70
2024/02/05 12:37:26;;;;;;;0.20;0.20;;;14.30;76.20;;;;;;5084167;28;20044;-70
2024/02/05 12:39:53;;;;;;;0.20;0.20;;;14.50;76.60;;;;;;5084222;28;20017;-71
2024/02/05 12:42:19;;;;;;;0.35;0.35;;;14.50;76.40;;;;;;5084225;28;20024;-70
2024/02/05 12:44:50;;;;;;;0.35;0.35;;;13.90;63.50;;;;;;5083842;28;20052;-70
2024/02/05 12:47:17;;;;;;;1.55;0.40;;;14.00;77.80;;;;;;5083945;28;20028;-70
2024/02/05 12:49:43;;;;;;;0.22;0.22;;;14.20;77.60;;;;;;5083929;28;20040;-70
2024/02/05 12:52:10;;;;;;;0.77;0.32;;;13.90;77.00;;;;;;5082557;28;20218;-71
2024/02/05 12:54:39;;;;;;;1.60;0.63;;;;;;;;;;5083911;28;20024;-70
2024/02/05 12:57:08;;;;;;;0.45;0.38;;;14.10;61.80;;;;;;5083921;28;20024;-70
2024/02/05 12:59:36;;;;;;;0.40;0.40;;;;;;;;;;5077439;28;20033;-70
2024/02/05 13:02:03;;;;;;;0.65;0.28;;;;;;;;;;5076772;28;20039;-70